createdAt,value
2018-11-04T00:00:30.698Z,87.50
2018-11-04T00:02:59.456Z,87.20
2018-11-04T00:05:28.506Z,87.50
2018-11-04T00:07:57.330Z,87.40
2018-11-04T00:10:26.019Z,87.50
2018-11-04T00:12:54.734Z,87.50
2018-11-04T00:15:23.489Z,87.30
2018-11-04T00:17:52.323Z,87.60
2018-11-04T00:20:21.071Z,88.10
2018-11-04T00:22:49.906Z,88.10
2018-11-04T00:25:18.621Z,88.10
2018-11-04T00:27:47.410Z,87.90
2018-11-04T00:30:16.305Z,87.80
2018-11-04T00:32:45.097Z,87.80
2018-11-04T00:35:13.931Z,86.50
2018-11-04T00:37:42.758Z,87.00
2018-11-04T00:40:11.649Z,87.10
2018-11-04T00:42:40.561Z,87.20
2018-11-04T00:45:09.751Z,87.20
2018-11-04T00:47:39.028Z,86.60
2018-11-04T00:50:10.333Z,86.30
2018-11-04T00:52:39.165Z,85.70
2018-11-04T00:55:08.342Z,86.00
2018-11-04T00:57:37.208Z,85.80
2018-11-04T01:00:09.499Z,84.10
2018-11-04T01:02:38.264Z,83.30
2018-11-04T01:05:07.557Z,84.00
2018-11-04T01:07:36.618Z,83.70
2018-11-04T01:10:05.984Z,83.10
2018-11-04T01:12:34.878Z,84.50
2018-11-04T01:15:03.679Z,84.20
2018-11-04T01:17:32.514Z,84.50
2018-11-04T01:20:01.347Z,85.10
2018-11-04T01:22:30.115Z,85.10
2018-11-04T01:24:59.226Z,85.20
2018-11-04T01:27:28.032Z,85.40
2018-11-04T01:29:57.315Z,85.20
2018-11-04T01:32:26.123Z,85.20
2018-11-04T01:34:54.953Z,85.20
2018-11-04T01:37:23.783Z,85.10
2018-11-04T01:39:52.587Z,84.00
2018-11-04T01:42:21.346Z,83.10
2018-11-04T01:44:50.121Z,83.10
2018-11-04T01:47:19.318Z,83.20
2018-11-04T01:49:48.020Z,83.30
2018-11-04T01:52:16.773Z,83.50
2018-11-04T01:54:45.529Z,83.30
2018-11-04T01:57:14.830Z,83.50
2018-11-04T01:59:43.815Z,84.10
2018-11-04T02:02:12.765Z,84.40
2018-11-04T02:04:42.335Z,86.70
2018-11-04T02:07:11.111Z,84.60
2018-11-04T02:09:40.015Z,84.20
2018-11-04T02:12:08.781Z,84.30
2018-11-04T02:14:37.488Z,85.10
2018-11-04T02:17:06.200Z,85.00
2018-11-04T02:19:34.919Z,84.80
2018-11-04T02:22:03.657Z,84.50
2018-11-04T02:24:32.475Z,84.50
2018-11-04T02:27:01.202Z,84.80
2018-11-04T02:29:29.938Z,85.10
2018-11-04T02:31:58.697Z,84.80
2018-11-04T02:34:27.665Z,84.80
2018-11-04T02:36:56.471Z,85.10
2018-11-04T02:39:26.358Z,85.00
2018-11-04T02:41:55.084Z,85.20
2018-11-04T02:44:23.851Z,85.30
2018-11-04T02:46:52.585Z,86.30
2018-11-04T02:49:21.735Z,86.50
2018-11-04T02:51:50.465Z,86.90
2018-11-04T02:54:19.189Z,87.70
2018-11-04T02:56:47.948Z,87.70
2018-11-04T02:59:16.686Z,88.30
2018-11-04T03:01:45.468Z,88.20
2018-11-04T03:04:14.193Z,88.30
2018-11-04T03:06:43.845Z,88.60
2018-11-04T03:09:12.777Z,88.60
2018-11-04T03:11:41.461Z,89.00
2018-11-04T03:14:10.245Z,89.50
2018-11-04T03:16:38.996Z,90.00
2018-11-04T03:19:07.768Z,90.40
2018-11-04T03:21:36.500Z,90.60
2018-11-04T03:24:05.463Z,90.90
2018-11-04T03:26:34.455Z,91.40
2018-11-04T03:29:03.246Z,91.60
2018-11-04T03:31:32.045Z,91.80
2018-11-04T03:34:00.800Z,91.70
2018-11-04T03:36:29.553Z,91.70
2018-11-04T03:38:58.275Z,91.50
2018-11-04T03:41:27.067Z,91.50
2018-11-04T03:43:55.765Z,91.60
2018-11-04T03:46:24.519Z,91.50
2018-11-04T03:48:53.196Z,91.50
2018-11-04T03:51:21.916Z,91.60
2018-11-04T03:53:50.716Z,92.00
2018-11-04T03:56:19.559Z,92.00
2018-11-04T03:58:48.267Z,91.90
2018-11-04T04:01:17.272Z,91.90
2018-11-04T04:03:46.122Z,91.80
2018-11-04T04:06:14.932Z,91.90
2018-11-04T04:08:43.652Z,92.00
2018-11-04T04:11:12.481Z,91.90
2018-11-04T04:13:41.158Z,91.70
2018-11-04T04:16:09.909Z,91.40
2018-11-04T04:18:38.643Z,91.40
2018-11-04T04:21:08.657Z,91.30
2018-11-04T04:23:39.015Z,91.50
2018-11-04T04:26:09.159Z,91.50
2018-11-04T04:28:37.987Z,91.70
2018-11-04T04:31:06.705Z,91.80
2018-11-04T04:33:35.435Z,91.70
2018-11-04T04:36:05.069Z,91.80
2018-11-04T04:38:33.820Z,91.70
2018-11-04T04:41:02.576Z,91.70
2018-11-04T04:43:31.384Z,91.40
2018-11-04T04:46:00.193Z,91.10
2018-11-04T04:48:28.890Z,91.20
2018-11-04T04:50:57.642Z,91.30
2018-11-04T04:53:26.424Z,91.20
2018-11-04T04:55:56.603Z,91.10
2018-11-04T04:58:31.781Z,91.20
2018-11-04T05:01:00.488Z,91.20
2018-11-04T05:03:29.259Z,91.20
2018-11-04T05:05:58.011Z,91.10
2018-11-04T05:08:26.756Z,91.20
2018-11-04T05:10:55.529Z,91.10
2018-11-04T05:13:24.228Z,90.80
2018-11-04T05:15:53.045Z,90.90
2018-11-04T05:18:21.766Z,91.20
2018-11-04T05:20:50.995Z,91.40
2018-11-04T05:23:19.702Z,91.60
2018-11-04T05:25:48.389Z,91.60
2018-11-04T05:28:17.151Z,91.40
2018-11-04T05:30:52.321Z,91.90
2018-11-04T05:33:21.028Z,92.00
2018-11-04T05:35:49.735Z,92.00
2018-11-04T05:38:18.597Z,92.10
2018-11-04T05:40:47.263Z,92.10
2018-11-04T05:43:16.005Z,92.20
2018-11-04T05:45:44.691Z,92.20
2018-11-04T05:48:13.390Z,92.40
2018-11-04T05:50:48.896Z,92.70
2018-11-04T05:53:17.622Z,92.70
2018-11-04T05:55:46.354Z,92.90
2018-11-04T05:58:15.173Z,93.00
2018-11-04T06:00:43.936Z,92.80
2018-11-04T06:03:12.639Z,92.70
2018-11-04T06:05:41.379Z,92.60
2018-11-04T06:08:10.167Z,92.70
2018-11-04T06:10:38.904Z,92.60
2018-11-04T06:13:07.631Z,93.30
2018-11-04T06:15:36.371Z,92.90
2018-11-04T06:18:05.311Z,92.90
2018-11-04T06:20:34.019Z,92.70
2018-11-04T06:23:02.804Z,92.90
2018-11-04T06:25:32.336Z,92.90
2018-11-04T06:28:01.058Z,93.00
2018-11-04T06:30:29.777Z,93.00
2018-11-04T06:32:58.572Z,93.00
2018-11-04T06:35:27.422Z,93.00
2018-11-04T06:37:56.221Z,93.10
2018-11-04T06:40:25.077Z,93.30
2018-11-04T06:42:53.794Z,93.00
2018-11-04T06:45:22.820Z,93.10
2018-11-04T06:47:51.713Z,93.10
2018-11-04T06:50:20.416Z,93.00
2018-11-04T06:52:50.308Z,93.00
2018-11-04T06:55:18.995Z,92.90
2018-11-04T06:57:47.703Z,92.70
2018-11-04T07:00:16.408Z,92.50
2018-11-04T07:02:45.195Z,92.40
2018-11-04T07:05:13.968Z,92.30
2018-11-04T07:07:42.731Z,92.30
2018-11-04T07:10:11.459Z,92.10
2018-11-04T07:12:40.206Z,91.70
2018-11-04T07:15:08.917Z,91.50
2018-11-04T07:17:37.642Z,91.10
2018-11-04T07:20:07.085Z,90.70
2018-11-04T07:22:35.712Z,90.40
2018-11-04T07:25:04.884Z,90.10
2018-11-04T07:27:33.700Z,89.80
2018-11-04T07:30:02.704Z,90.00
2018-11-04T07:32:31.526Z,90.10
2018-11-04T07:35:00.206Z,90.00
2018-11-04T07:37:28.948Z,90.00
2018-11-04T07:39:57.816Z,89.90
2018-11-04T07:42:26.782Z,89.30
2018-11-04T07:44:55.708Z,88.30
2018-11-04T07:47:31.882Z,87.80
2018-11-04T07:50:00.840Z,87.60
2018-11-04T07:52:29.588Z,87.60
2018-11-04T07:54:58.447Z,86.60
2018-11-04T07:57:27.189Z,86.60
2018-11-04T07:59:56.053Z,87.10
2018-11-04T08:02:24.819Z,86.00
2018-11-04T08:04:53.691Z,85.40
2018-11-04T08:07:22.559Z,85.10
2018-11-04T08:09:51.254Z,84.60
2018-11-04T08:12:20.368Z,84.30
2018-11-04T08:14:49.108Z,84.90
2018-11-04T08:17:18.045Z,84.60
2018-11-04T08:22:26.407Z,83.70
2018-11-04T08:25:01.043Z,83.00
2018-11-04T08:27:45.851Z,82.40
2018-11-04T08:30:15.253Z,82.10
2018-11-04T08:32:50.735Z,82.30
2018-11-04T08:35:21.463Z,80.70
2018-11-04T08:37:51.374Z,78.60
2018-11-04T08:43:03.392Z,77.80
2018-11-04T08:45:32.752Z,79.30
2018-11-04T08:48:01.851Z,80.90
2018-11-04T08:50:30.678Z,80.60
2018-11-04T08:55:38.768Z,80.90
2018-11-04T08:58:07.593Z,81.30
2018-11-04T09:00:36.315Z,82.00
2018-11-04T09:03:05.164Z,82.30
2018-11-04T09:05:34.026Z,82.30
2018-11-04T09:08:02.998Z,83.10
2018-11-04T09:10:31.834Z,83.70
2018-11-04T09:13:00.658Z,84.00
2018-11-04T09:15:31.110Z,84.20
2018-11-04T09:18:01.205Z,84.80
2018-11-04T09:20:30.116Z,84.50
2018-11-04T09:22:59.538Z,84.60
2018-11-04T09:25:28.572Z,84.80
2018-11-04T09:30:33.883Z,85.50
2018-11-04T09:33:08.633Z,85.70
2018-11-04T09:35:51.437Z,85.80
2018-11-04T09:38:21.283Z,85.90
2018-11-04T09:40:55.279Z,86.10
2018-11-04T09:43:24.288Z,86.10
2018-11-04T09:45:53.475Z,86.70
2018-11-04T09:48:22.858Z,86.70
2018-11-04T09:50:51.604Z,86.00
2018-11-04T09:53:21.780Z,85.70
2018-11-04T09:55:50.537Z,86.00
2018-11-04T09:58:19.337Z,84.90
2018-11-04T10:00:48.187Z,84.70
2018-11-04T10:03:17.071Z,84.70
2018-11-04T10:05:45.819Z,85.80
2018-11-04T10:08:15.350Z,84.90
2018-11-04T10:10:44.363Z,84.60
2018-11-04T10:13:13.281Z,84.50
2018-11-04T10:15:42.269Z,84.70
2018-11-04T10:18:11.088Z,84.10
2018-11-04T10:20:40.317Z,84.40
2018-11-04T10:23:08.811Z,84.30
2018-11-04T10:25:37.656Z,84.30
2018-11-04T10:28:06.389Z,84.20
2018-11-04T10:30:35.903Z,84.40
2018-11-04T10:33:05.362Z,84.00
2018-11-04T10:35:35.953Z,84.10
2018-11-04T10:38:05.128Z,83.90
2018-11-04T10:40:35.180Z,83.40
2018-11-04T10:43:04.054Z,83.00
2018-11-04T10:45:32.816Z,82.70
2018-11-04T10:48:01.538Z,83.10
2018-11-04T10:50:38.051Z,83.20
2018-11-04T10:53:12.013Z,83.60
2018-11-04T10:55:42.464Z,83.90
2018-11-04T10:58:16.612Z,84.50
2018-11-04T11:03:34.864Z,85.00
2018-11-04T11:06:07.769Z,85.00
2018-11-04T11:08:41.034Z,84.80
2018-11-04T11:11:18.530Z,84.90
2018-11-04T11:13:47.867Z,84.90
2018-11-04T11:16:16.616Z,85.30
2018-11-04T11:18:45.442Z,84.30
2018-11-04T11:21:14.341Z,84.70
2018-11-04T11:23:43.352Z,84.80
2018-11-04T11:31:37.829Z,85.20
2018-11-04T11:34:06.596Z,85.60
2018-11-04T11:36:35.392Z,85.60
2018-11-04T11:39:07.572Z,85.60
2018-11-04T11:41:36.711Z,86.00
2018-11-04T11:44:05.927Z,86.40
2018-11-04T11:46:34.902Z,86.50
2018-11-04T11:49:03.689Z,85.90
2018-11-04T11:51:32.491Z,85.50
2018-11-04T11:54:02.161Z,85.40
2018-11-04T11:56:31.216Z,85.80
2018-11-04T11:59:00.078Z,85.80
2018-11-04T12:01:29.414Z,86.10
2018-11-04T12:04:01.059Z,86.90
2018-11-04T12:06:31.999Z,87.10
2018-11-04T12:09:02.412Z,87.10
2018-11-04T12:11:32.607Z,86.90
2018-11-04T12:14:02.674Z,86.90
2018-11-04T12:16:32.293Z,87.90
2018-11-04T12:19:02.589Z,86.80
2018-11-04T12:21:31.327Z,87.40
2018-11-04T12:24:00.058Z,87.60
2018-11-04T12:26:28.883Z,87.70
2018-11-04T12:28:57.644Z,87.40
2018-11-04T12:31:26.419Z,87.70
2018-11-04T12:33:55.333Z,87.40
2018-11-04T12:36:25.414Z,87.40
2018-11-04T12:38:55.485Z,87.80
2018-11-04T12:44:02.281Z,87.30
2018-11-04T12:46:31.063Z,86.90
2018-11-04T12:49:01.172Z,86.70
2018-11-04T12:51:30.879Z,86.80
2018-11-04T12:54:00.789Z,87.20
2018-11-04T12:56:34.466Z,86.90
2018-11-04T12:59:10.154Z,87.00
2018-11-04T13:01:39.009Z,86.80
2018-11-04T13:04:08.288Z,86.90
2018-11-04T13:06:37.121Z,87.20
2018-11-04T13:09:07.796Z,87.00
2018-11-04T13:11:37.566Z,86.80
2018-11-04T13:14:06.720Z,87.60
2018-11-04T13:16:36.432Z,86.90
2018-11-04T13:19:06.430Z,86.70
2018-11-04T13:21:35.748Z,86.90
2018-11-04T13:24:04.600Z,87.20
2018-11-04T13:26:33.298Z,86.80
2018-11-04T13:29:02.948Z,87.00
2018-11-04T13:31:31.692Z,86.50
2018-11-04T13:34:00.399Z,86.60
2018-11-04T13:36:29.215Z,86.60
2018-11-04T13:38:58.130Z,86.60
2018-11-04T13:41:27.488Z,86.40
2018-11-04T13:44:02.396Z,86.60
2018-11-04T13:46:31.124Z,86.80
2018-11-04T13:48:59.869Z,86.70
2018-11-04T13:51:28.845Z,87.10
2018-11-04T13:53:59.883Z,87.90
2018-11-04T13:56:28.661Z,88.30
2018-11-04T13:58:58.107Z,88.70
2018-11-04T14:01:27.404Z,88.80
2018-11-04T14:03:56.098Z,88.80
2018-11-04T14:06:24.797Z,88.90
2018-11-04T14:11:29.092Z,89.00
2018-11-04T14:14:05.552Z,88.90
2018-11-04T14:16:34.747Z,88.90
2018-11-04T14:19:03.451Z,89.30
2018-11-04T14:21:32.228Z,89.40
2018-11-04T14:24:00.963Z,89.30
2018-11-04T14:26:29.675Z,90.10
2018-11-04T14:28:58.466Z,89.30
2018-11-04T14:31:27.211Z,89.30
2018-11-04T14:33:56.304Z,89.50
2018-11-04T14:36:25.033Z,89.40
2018-11-04T14:38:53.720Z,89.50
2018-11-04T14:41:22.452Z,89.60
2018-11-04T14:43:52.334Z,89.60
2018-11-04T14:46:21.813Z,90.00
2018-11-04T14:48:50.522Z,90.10
2018-11-04T14:51:20.597Z,90.10
2018-11-04T14:53:49.462Z,90.20
2018-11-04T14:56:18.126Z,90.40
2018-11-04T14:58:47.239Z,90.30
2018-11-04T15:01:16.120Z,90.40
2018-11-04T15:03:44.813Z,90.50
2018-11-04T15:06:13.908Z,90.60
2018-11-04T15:08:42.612Z,90.60
2018-11-04T15:11:11.327Z,90.70
2018-11-04T15:13:41.275Z,90.60
2018-11-04T15:16:10.092Z,90.80
2018-11-04T15:18:39.479Z,90.90
2018-11-04T15:21:08.959Z,91.40
2018-11-04T15:23:40.542Z,91.20
2018-11-04T15:26:10.741Z,90.90
2018-11-04T15:28:40.370Z,90.80
2018-11-04T15:31:09.116Z,90.80
2018-11-04T15:33:37.912Z,90.90
2018-11-04T15:36:07.129Z,90.80
2018-11-04T15:38:36.008Z,90.80
2018-11-04T15:41:05.665Z,90.90
2018-11-04T15:43:35.069Z,90.90
2018-11-04T15:46:04.702Z,91.20
2018-11-04T15:48:33.505Z,91.00
2018-11-04T15:51:06.520Z,90.90
2018-11-04T15:53:36.880Z,91.00
2018-11-04T15:56:08.530Z,91.00
2018-11-04T15:58:37.291Z,91.00
2018-11-04T16:01:06.097Z,90.90
2018-11-04T16:03:39.429Z,91.00
2018-11-04T16:06:09.783Z,91.30
2018-11-04T16:08:38.606Z,91.00
2018-11-04T16:11:08.418Z,91.00
2018-11-04T16:13:40.018Z,91.20
2018-11-04T16:16:08.756Z,91.00
2018-11-04T16:18:37.703Z,91.00
2018-11-04T16:21:07.389Z,90.90
2018-11-04T16:26:23.150Z,91.00
2018-11-04T16:28:52.078Z,91.10
2018-11-04T16:31:27.720Z,91.30
2018-11-04T16:33:56.461Z,91.40
2018-11-04T16:36:25.973Z,91.30
2018-11-04T16:38:56.268Z,91.40
2018-11-04T16:41:26.302Z,91.50
2018-11-04T16:46:32.230Z,91.20
2018-11-04T16:51:39.350Z,91.40
2018-11-04T16:54:14.070Z,91.40
2018-11-04T16:56:44.790Z,91.50
2018-11-04T16:59:15.058Z,91.60
2018-11-04T17:04:38.308Z,91.50
2018-11-04T17:07:09.101Z,91.50
2018-11-04T17:09:38.658Z,92.00
2018-11-04T17:12:07.517Z,91.50
2018-11-04T17:14:37.905Z,91.50
2018-11-04T17:17:07.449Z,92.00
2018-11-04T17:19:38.542Z,91.90
2018-11-04T17:24:51.914Z,92.10
2018-11-04T17:27:32.187Z,91.80
2018-11-04T17:30:11.390Z,91.90
2018-11-04T17:32:40.560Z,92.00
2018-11-04T17:35:10.523Z,92.00
2018-11-04T17:37:39.575Z,91.90
2018-11-04T17:40:14.227Z,91.80
2018-11-04T17:42:52.399Z,91.90
2018-11-04T17:45:33.461Z,92.10
2018-11-04T17:48:02.825Z,92.10
2018-11-04T17:50:31.612Z,92.10
2018-11-04T17:53:00.427Z,92.00
2018-11-04T17:55:36.019Z,91.80
2018-11-04T17:58:06.971Z,91.80
2018-11-04T18:00:41.048Z,91.90
2018-11-04T18:03:15.917Z,91.90
2018-11-04T18:05:45.313Z,91.90
2018-11-04T18:08:14.212Z,92.00
2018-11-04T18:10:44.016Z,91.90
2018-11-04T18:13:12.791Z,91.90
2018-11-04T18:15:41.577Z,91.90
2018-11-04T18:18:10.445Z,91.90
2018-11-04T18:20:40.450Z,92.10
2018-11-04T18:23:09.273Z,92.30
2018-11-04T18:25:38.997Z,92.00
2018-11-04T18:28:09.080Z,91.80
2018-11-04T18:30:38.112Z,92.10
2018-11-04T18:33:07.075Z,92.60
2018-11-04T18:35:36.236Z,92.20
2018-11-04T18:38:05.697Z,92.70
2018-11-04T18:40:35.664Z,92.10
2018-11-04T18:43:05.798Z,92.30
2018-11-04T18:45:36.192Z,92.40
2018-11-04T18:48:05.581Z,92.60
2018-11-04T18:50:34.753Z,92.80
2018-11-04T18:53:03.528Z,92.40
2018-11-04T18:55:32.659Z,92.30
2018-11-04T18:58:01.420Z,92.40
2018-11-04T19:00:30.541Z,92.30
2018-11-04T19:02:59.309Z,92.30
2018-11-04T19:05:28.164Z,92.20
2018-11-04T19:07:56.942Z,92.30
2018-11-04T19:10:25.733Z,92.40
2018-11-04T19:12:54.489Z,92.40
2018-11-04T19:15:23.462Z,92.50
2018-11-04T19:17:52.278Z,92.50
2018-11-04T19:20:21.551Z,92.40
2018-11-04T19:22:51.968Z,92.40
2018-11-04T19:25:21.479Z,92.50
2018-11-04T19:27:52.540Z,92.50
2018-11-04T19:30:22.262Z,92.50
2018-11-04T19:32:51.072Z,92.50
2018-11-04T19:35:21.443Z,92.50
2018-11-04T19:37:56.960Z,92.50
2018-11-04T19:40:25.874Z,92.40
2018-11-04T19:42:54.726Z,92.80
2018-11-04T19:45:23.599Z,92.40
2018-11-04T19:47:52.770Z,92.60
2018-11-04T19:50:23.854Z,92.60
2018-11-04T19:52:58.049Z,92.40
2018-11-04T19:55:30.031Z,92.40
2018-11-04T19:57:59.668Z,92.80
2018-11-04T20:00:28.785Z,92.70
2018-11-04T20:03:00.966Z,92.80
2018-11-04T20:05:30.764Z,93.10
2018-11-04T20:07:59.677Z,93.10
2018-11-04T20:10:28.414Z,93.00
2018-11-04T20:13:02.808Z,92.90
2018-11-04T20:15:32.720Z,92.90
2018-11-04T20:18:05.848Z,92.90
2018-11-04T20:20:35.121Z,92.90
2018-11-04T20:23:04.079Z,92.80
2018-11-04T20:25:38.554Z,92.70
2018-11-04T20:28:07.392Z,92.90
2018-11-04T20:30:36.436Z,92.80
2018-11-04T20:33:08.966Z,92.80
2018-11-04T20:35:37.850Z,92.80
2018-11-04T20:38:06.808Z,92.80
2018-11-04T20:40:40.996Z,93.00
2018-11-04T20:43:09.916Z,93.10
2018-11-04T20:45:38.791Z,93.20
2018-11-04T20:48:13.294Z,93.20
2018-11-04T20:50:47.673Z,93.10
2018-11-04T20:53:16.554Z,93.10
2018-11-04T20:55:51.015Z,93.20
2018-11-04T20:58:19.968Z,93.20
2018-11-04T21:00:48.596Z,93.20
2018-11-04T21:03:17.448Z,93.20
2018-11-04T21:05:46.327Z,93.30
2018-11-04T21:08:15.091Z,93.20
2018-11-04T21:10:43.966Z,93.30
2018-11-04T21:13:12.716Z,93.30
2018-11-04T21:15:41.551Z,93.40
2018-11-04T21:18:10.300Z,93.30
2018-11-04T21:20:39.023Z,93.30
2018-11-04T21:23:07.846Z,93.30
2018-11-04T21:25:36.875Z,93.50
2018-11-04T21:28:05.667Z,93.60
2018-11-04T21:30:34.242Z,93.90
2018-11-04T21:33:02.970Z,94.10
2018-11-04T21:35:32.683Z,94.10
2018-11-04T21:38:01.626Z,94.20
2018-11-04T21:40:30.247Z,94.30
2018-11-04T21:42:59.031Z,94.30
2018-11-04T21:45:27.786Z,94.30
2018-11-04T21:47:56.682Z,94.30
2018-11-04T21:50:25.744Z,94.40
2018-11-04T21:52:54.464Z,94.40
2018-11-04T21:55:23.642Z,94.60
2018-11-04T21:57:52.213Z,94.60
2018-11-04T22:00:21.112Z,94.60
2018-11-04T22:02:50.017Z,94.80
2018-11-04T22:05:19.101Z,95.00
2018-11-04T22:07:47.852Z,95.00
2018-11-04T22:10:16.697Z,94.90
2018-11-04T22:12:45.419Z,94.90
2018-11-04T22:15:14.189Z,95.00
2018-11-04T22:17:42.990Z,95.10
2018-11-04T22:20:12.940Z,95.20
2018-11-04T22:22:41.688Z,95.30
2018-11-04T22:25:11.443Z,95.30
2018-11-04T22:27:40.181Z,95.50
2018-11-04T22:30:10.481Z,95.60
2018-11-04T22:32:39.625Z,95.70
2018-11-04T22:35:09.747Z,95.80
2018-11-04T22:37:38.728Z,95.70
2018-11-04T22:40:08.801Z,95.70
2018-11-04T22:42:37.631Z,95.70
2018-11-04T22:45:07.456Z,95.50
2018-11-04T22:47:36.268Z,95.50
2018-11-04T22:50:08.163Z,95.60
2018-11-04T22:52:37.412Z,95.50
2018-11-04T22:55:06.263Z,95.50
2018-11-04T22:57:35.028Z,95.40
2018-11-04T23:00:04.763Z,95.30
2018-11-04T23:02:33.621Z,95.40
2018-11-04T23:05:37.155Z,95.40
2018-11-04T23:08:06.561Z,95.20
2018-11-04T23:10:35.856Z,95.30
2018-11-04T23:13:04.636Z,95.30
2018-11-04T23:15:33.352Z,95.30
2018-11-04T23:18:02.121Z,95.10
2018-11-04T23:20:30.925Z,95.10
2018-11-04T23:22:59.660Z,95.20
2018-11-04T23:25:28.425Z,95.30
2018-11-04T23:27:57.159Z,95.30
2018-11-04T23:30:25.935Z,95.40
2018-11-04T23:32:54.655Z,95.30
2018-11-04T23:35:23.445Z,95.20
2018-11-04T23:37:52.161Z,95.30
2018-11-04T23:40:20.883Z,95.20
2018-11-04T23:42:49.599Z,95.00
2018-11-04T23:45:18.435Z,95.30
2018-11-04T23:47:47.180Z,95.30
2018-11-04T23:50:17.682Z,95.50
2018-11-04T23:52:46.496Z,95.30
2018-11-04T23:55:15.796Z,95.20
2018-11-04T23:57:44.522Z,95.20
